sensor_id;sensor_type;location;lat;lon;timestamp;pressure;altitude;pressure_sealevel;temperature;humidity
35798;BME280;21918;49.940;7.774;2023-07-31T00:00:30;98585.94;;;24.98;49.00
35798;BME280;21918;49.940;7.774;2023-07-31T00:02:56;98592.47;;;24.95;49.63
35798;BME280;21918;49.940;7.774;2023-07-31T00:05:23;98592.47;;;24.95;49.46
35798;BME280;21918;49.940;7.774;2023-07-31T00:07:50;98592.47;;;24.95;49.01
35798;BME280;21918;49.940;7.774;2023-07-31T00:10:20;98588.00;;;24.94;49.15
35798;BME280;21918;49.940;7.774;2023-07-31T00:12:48;98582.72;;;24.96;48.97
35798;BME280;21918;49.940;7.774;2023-07-31T00:15:15;98594.91;;;24.93;49.35
35798;BME280;21918;49.940;7.774;2023-07-31T00:17:41;98597.25;;;24.98;49.47
35798;BME280;21918;49.940;7.774;2023-07-31T00:20:09;98597.56;;;25.04;49.06
35798;BME280;21918;49.940;7.774;2023-07-31T00:22:36;98598.44;;;25.01;49.01
35798;BME280;21918;49.940;7.774;2023-07-31T00:25:05;98598.84;;;24.99;48.65
35798;BME280;21918;49.940;7.774;2023-07-31T00:27:32;98597.19;;;25.02;48.67
35798;BME280;21918;49.940;7.774;2023-07-31T00:30:04;98594.72;;;25.04;49.07
35798;BME280;21918;49.940;7.774;2023-07-31T00:32:34;98591.38;;;25.09;48.55
35798;BME280;21918;49.940;7.774;2023-07-31T00:35:02;98586.88;;;25.11;48.35
35798;BME280;21918;49.940;7.774;2023-07-31T00:37:29;98590.53;;;25.12;48.40
35798;BME280;21918;49.940;7.774;2023-07-31T00:39:55;98584.50;;;25.10;48.58
35798;BME280;21918;49.940;7.774;2023-07-31T00:42:23;98595.91;;;25.06;48.84
35798;BME280;21918;49.940;7.774;2023-07-31T00:44:52;98604.34;;;25.10;48.38
35798;BME280;21918;49.940;7.774;2023-07-31T00:47:21;98592.13;;;25.13;48.34
35798;BME280;21918;49.940;7.774;2023-07-31T00:49:49;98596.56;;;25.14;48.53
35798;BME280;21918;49.940;7.774;2023-07-31T00:52:16;98591.38;;;25.09;47.83
35798;BME280;21918;49.940;7.774;2023-07-31T00:54:43;98593.00;;;25.10;48.37
35798;BME280;21918;49.940;7.774;2023-07-31T00:57:10;98587.25;;;25.13;47.84
35798;BME280;21918;49.940;7.774;2023-07-31T00:59:36;98592.13;;;25.13;47.56
35798;BME280;21918;49.940;7.774;2023-07-31T01:02:04;98584.94;;;25.08;47.32
35798;BME280;21918;49.940;7.774;2023-07-31T01:04:32;98583.69;;;25.09;48.02
35798;BME280;21918;49.940;7.774;2023-07-31T01:07:02;98580.72;;;25.16;47.39
35798;BME280;21918;49.940;7.774;2023-07-31T01:09:40;98580.72;;;25.16;47.66
35798;BME280;21918;49.940;7.774;2023-07-31T01:12:14;98577.31;;;25.25;47.55
35798;BME280;21918;49.940;7.774;2023-07-31T01:14:51;98586.41;;;25.16;47.78
35798;BME280;21918;49.940;7.774;2023-07-31T01:17:20;98577.47;;;25.18;47.51
35798;BME280;21918;49.940;7.774;2023-07-31T01:19:49;98586.41;;;25.16;47.94
35798;BME280;21918;49.940;7.774;2023-07-31T01:22:33;98574.47;;;25.05;48.13
35798;BME280;21918;49.940;7.774;2023-07-31T01:25:13;98575.06;;;25.16;48.18
35798;BME280;21918;49.940;7.774;2023-07-31T01:27:51;98567.84;;;25.12;48.47
35798;BME280;21918;49.940;7.774;2023-07-31T01:30:25;98567.38;;;25.17;48.56
35798;BME280;21918;49.940;7.774;2023-07-31T01:32:54;98566.94;;;25.18;48.50
35798;BME280;21918;49.940;7.774;2023-07-31T01:35:23;98563.72;;;25.16;48.55
35798;BME280;21918;49.940;7.774;2023-07-31T01:37:52;98565.31;;;25.17;48.50
35798;BME280;21918;49.940;7.774;2023-07-31T01:40:21;98572.16;;;25.20;48.75
35798;BME280;21918;49.940;7.774;2023-07-31T01:42:49;98563.63;;;25.20;48.57
35798;BME280;21918;49.940;7.774;2023-07-31T01:45:18;98563.28;;;25.18;48.72
35798;BME280;21918;49.940;7.774;2023-07-31T01:47:45;98566.56;;;25.16;48.12
35798;BME280;21918;49.940;7.774;2023-07-31T01:50:12;98557.25;;;25.16;48.29
35798;BME280;21918;49.940;7.774;2023-07-31T01:52:39;98557.34;;;25.12;48.40
35798;BME280;21918;49.940;7.774;2023-07-31T01:55:06;98544.03;;;25.09;48.18
35798;BME280;21918;49.940;7.774;2023-07-31T01:57:33;98538.28;;;25.13;48.29
35798;BME280;21918;49.940;7.774;2023-07-31T02:00:04;98524.06;;;25.16;48.31
35798;BME280;21918;49.940;7.774;2023-07-31T02:02:30;98523.97;;;25.20;47.87
35798;BME280;21918;49.940;7.774;2023-07-31T02:04:57;98527.59;;;25.20;47.92
35798;BME280;21918;49.940;7.774;2023-07-31T02:07:24;98526.16;;;25.12;47.76
35798;BME280;21918;49.940;7.774;2023-07-31T02:09:51;98518.97;;;25.08;47.98
35798;BME280;21918;49.940;7.774;2023-07-31T02:12:18;98518.56;;;25.06;47.93
35798;BME280;21918;49.940;7.774;2023-07-31T02:14:44;98521.78;;;25.08;47.95
35798;BME280;21918;49.940;7.774;2023-07-31T02:17:12;98516.13;;;25.08;47.97
35798;BME280;21918;49.940;7.774;2023-07-31T02:19:39;98518.09;;;25.11;48.40
35798;BME280;21918;49.940;7.774;2023-07-31T02:22:11;98514.44;;;25.10;48.55
35798;BME280;21918;49.940;7.774;2023-07-31T02:24:39;98518.38;;;25.16;48.98
35798;BME280;21918;49.940;7.774;2023-07-31T02:27:06;98511.13;;;25.15;48.62
35798;BME280;21918;49.940;7.774;2023-07-31T02:29:32;98520.53;;;25.09;48.52
35798;BME280;21918;49.940;7.774;2023-07-31T02:31:59;98530.66;;;25.10;48.82
35798;BME280;21918;49.940;7.774;2023-07-31T02:34:30;98533.50;;;25.10;49.14
35798;BME280;21918;49.940;7.774;2023-07-31T02:36:57;98537.84;;;25.14;49.04
35798;BME280;21918;49.940;7.774;2023-07-31T02:39:26;98541.50;;;25.15;49.33
35798;BME280;21918;49.940;7.774;2023-07-31T02:41:52;98538.22;;;25.16;49.17
35798;BME280;21918;49.940;7.774;2023-07-31T02:44:19;98537.06;;;25.14;49.39
35798;BME280;21918;49.940;7.774;2023-07-31T02:46:46;98533.78;;;25.15;49.28
35798;BME280;21918;49.940;7.774;2023-07-31T02:49:19;98536.25;;;25.13;49.60
35798;BME280;21918;49.940;7.774;2023-07-31T02:51:47;98524.91;;;25.13;49.06
35798;BME280;21918;49.940;7.774;2023-07-31T02:54:14;98533.84;;;25.12;nan
35798;BME280;21918;49.940;7.774;2023-07-31T02:56:40;98528.28;;;25.08;49.70
35798;BME280;21918;49.940;7.774;2023-07-31T02:59:07;98527.03;;;25.09;49.95
35798;BME280;21918;49.940;7.774;2023-07-31T03:01:36;98524.09;;;25.13;49.82
35798;BME280;21918;49.940;7.774;2023-07-31T03:04:02;98532.59;;;25.13;49.81
35798;BME280;21918;49.940;7.774;2023-07-31T03:06:29;98528.19;;;25.12;50.04
35798;BME280;21918;49.940;7.774;2023-07-31T03:09:00;98529.44;;;25.11;50.15
35798;BME280;21918;49.940;7.774;2023-07-31T03:11:27;98530.19;;;25.11;50.45
35798;BME280;21918;49.940;7.774;2023-07-31T03:13:53;98525.78;;;25.10;50.52
35798;BME280;21918;49.940;7.774;2023-07-31T03:16:20;98528.19;;;25.12;50.67
35798;BME280;21918;49.940;7.774;2023-07-31T03:18:47;98523.81;;;25.07;50.40
35798;BME280;21918;49.940;7.774;2023-07-31T03:21:14;98532.41;;;25.04;50.52
35798;BME280;21918;49.940;7.774;2023-07-31T03:23:47;98522.75;;;25.01;50.69
35798;BME280;21918;49.940;7.774;2023-07-31T03:26:17;98530.00;;;25.02;50.46
35798;BME280;21918;49.940;7.774;2023-07-31T03:28:44;98526.78;;;25.00;50.86
35798;BME280;21918;49.940;7.774;2023-07-31T03:31:11;98534.94;;;24.98;50.67
35798;BME280;21918;49.940;7.774;2023-07-31T03:33:38;98526.06;;;24.96;51.10
35798;BME280;21918;49.940;7.774;2023-07-31T03:36:04;98526.50;;;24.95;51.04
35798;BME280;21918;49.940;7.774;2023-07-31T03:38:33;98534.13;;;24.98;51.00
35798;BME280;21918;49.940;7.774;2023-07-31T03:41:01;98517.19;;;24.94;50.91
35798;BME280;21918;49.940;7.774;2023-07-31T03:43:29;98521.25;;;24.93;51.10
35798;BME280;21918;49.940;7.774;2023-07-31T03:45:56;98518.41;;;24.93;51.02
35798;BME280;21918;49.940;7.774;2023-07-31T03:48:22;98527.34;;;24.92;51.23
35798;BME280;21918;49.940;7.774;2023-07-31T03:50:50;98515.53;;;24.97;51.34
35798;BME280;21918;49.940;7.774;2023-07-31T03:53:19;98519.59;;;24.96;51.21
35798;BME280;21918;49.940;7.774;2023-07-31T03:55:45;98515.88;;;24.99;51.09
35798;BME280;21918;49.940;7.774;2023-07-31T03:58:13;98513.44;;;25.01;51.06
35798;BME280;21918;49.940;7.774;2023-07-31T04:00:41;98519.44;;;25.03;51.14
35798;BME280;21918;49.940;7.774;2023-07-31T04:03:08;98513.06;;;24.99;51.07
35798;BME280;21918;49.940;7.774;2023-07-31T04:05:41;98501.44;;;24.93;51.08
35798;BME280;21918;49.940;7.774;2023-07-31T04:08:08;98499.31;;;24.97;51.23
35798;BME280;21918;49.940;7.774;2023-07-31T04:10:35;98494.41;;;25.01;51.26
35798;BME280;21918;49.940;7.774;2023-07-31T04:13:02;98489.91;;;25.04;51.38
35798;BME280;21918;49.940;7.774;2023-07-31T04:15:31;98490.25;;;25.06;51.49
35798;BME280;21918;49.940;7.774;2023-07-31T04:17:59;98486.19;;;25.07;51.16
35798;BME280;21918;49.940;7.774;2023-07-31T04:20:26;98499.19;;;25.04;51.39
35798;BME280;21918;49.940;7.774;2023-07-31T04:22:53;98502.44;;;25.03;51.29
35798;BME280;21918;49.940;7.774;2023-07-31T04:25:19;98492.72;;;25.04;51.38
35798;BME280;21918;49.940;7.774;2023-07-31T04:27:46;98493.16;;;25.02;51.40
35798;BME280;21918;49.940;7.774;2023-07-31T04:30:13;98493.16;;;25.02;51.46
35798;BME280;21918;49.940;7.774;2023-07-31T04:32:41;98496.00;;;25.02;51.36
35798;BME280;21918;49.940;7.774;2023-07-31T04:35:10;98491.47;;;25.05;51.48
35798;BME280;21918;49.940;7.774;2023-07-31T04:37:37;98491.91;;;25.03;51.08
35798;BME280;21918;49.940;7.774;2023-07-31T04:40:05;98493.59;;;25.01;50.85
35798;BME280;21918;49.940;7.774;2023-07-31T04:42:32;98489.66;;;24.95;50.96
35798;BME280;21918;49.940;7.774;2023-07-31T04:44:59;98492.06;;;24.96;51.14
35798;BME280;21918;49.940;7.774;2023-07-31T04:47:26;98494.50;;;24.94;51.25
35798;BME280;21918;49.940;7.774;2023-07-31T04:50:03;98489.38;;;24.89;51.21
35798;BME280;21918;49.940;7.774;2023-07-31T04:52:32;98491.19;;;24.99;51.04
35798;BME280;21918;49.940;7.774;2023-07-31T04:55:06;98475.78;;;25.00;51.47
35798;BME280;21918;49.940;7.774;2023-07-31T04:57:33;98486.69;;;25.02;51.41
35798;BME280;21918;49.940;7.774;2023-07-31T04:59:59;98490.31;;;25.02;51.02
35798;BME280;21918;49.940;7.774;2023-07-31T05:02:26;98486.25;;;25.03;51.20
35798;BME280;21918;49.940;7.774;2023-07-31T05:04:53;98478.13;;;25.05;51.03
35798;BME280;21918;49.940;7.774;2023-07-31T05:07:19;98486.97;;;25.07;51.16
35798;BME280;21918;49.940;7.774;2023-07-31T05:09:48;98486.97;;;25.07;50.81
35798;BME280;21918;49.940;7.774;2023-07-31T05:12:14;98490.25;;;25.06;50.83
35798;BME280;21918;49.940;7.774;2023-07-31T05:14:41;98491.06;;;25.06;50.98
35798;BME280;21918;49.940;7.774;2023-07-31T05:17:08;98481.69;;;25.09;50.71
35798;BME280;21918;49.940;7.774;2023-07-31T05:19:38;98483.28;;;25.10;50.73
35798;BME280;21918;49.940;7.774;2023-07-31T05:22:08;98489.31;;;25.12;50.66
35798;BME280;21918;49.940;7.774;2023-07-31T05:24:35;98486.50;;;25.12;50.43
35798;BME280;21918;49.940;7.774;2023-07-31T05:27:03;98492.16;;;25.12;50.73
35798;BME280;21918;49.940;7.774;2023-07-31T05:29:30;98482.41;;;25.13;50.81
35798;BME280;21918;49.940;7.774;2023-07-31T05:31:57;98484.81;;;25.15;50.92
35798;BME280;21918;49.940;7.774;2023-07-31T05:34:24;98479.09;;;25.18;50.77
35798;BME280;21918;49.940;7.774;2023-07-31T05:36:51;98472.94;;;25.20;50.59
35798;BME280;21918;49.940;7.774;2023-07-31T05:39:18;98471.78;;;25.17;50.48
35798;BME280;21918;49.940;7.774;2023-07-31T05:41:45;98465.34;;;25.17;50.73
35798;BME280;21918;49.940;7.774;2023-07-31T05:44:13;98454.78;;;25.17;50.32
35798;BME280;21918;49.940;7.774;2023-07-31T05:46:40;98460.03;;;25.19;50.36
35798;BME280;21918;49.940;7.774;2023-07-31T05:49:10;98447.00;;;25.21;50.69
35798;BME280;21918;49.940;7.774;2023-07-31T05:51:39;98453.06;;;25.23;50.60
35798;BME280;21918;49.940;7.774;2023-07-31T05:54:10;98465.09;;;25.27;50.17
35798;BME280;21918;49.940;7.774;2023-07-31T05:56:36;98459.00;;;25.29;50.03
35798;BME280;21918;49.940;7.774;2023-07-31T05:59:03;98454.16;;;25.29;49.89
35798;BME280;21918;49.940;7.774;2023-07-31T06:01:31;98452.56;;;25.28;49.90
35798;BME280;21918;49.940;7.774;2023-07-31T06:03:58;98448.53;;;25.26;49.67
35798;BME280;21918;49.940;7.774;2023-07-31T06:06:25;98447.38;;;25.23;49.64
35798;BME280;21918;49.940;7.774;2023-07-31T06:08:51;98445.25;;;25.27;49.79
35798;BME280;21918;49.940;7.774;2023-07-31T06:11:19;98447.66;;;25.29;49.63
35798;BME280;21918;49.940;7.774;2023-07-31T06:13:46;98446.88;;;25.28;49.63
35798;BME280;21918;49.940;7.774;2023-07-31T06:16:14;98448.53;;;25.26;49.11
35798;BME280;21918;49.940;7.774;2023-07-31T06:18:44;98438.16;;;25.19;49.08
35798;BME280;21918;49.940;7.774;2023-07-31T06:21:14;98441.88;;;25.16;48.68
35798;BME280;21918;49.940;7.774;2023-07-31T06:23:41;98440.78;;;25.10;48.63
35798;BME280;21918;49.940;7.774;2023-07-31T06:26:08;98442.25;;;25.18;48.84
35798;BME280;21918;49.940;7.774;2023-07-31T06:28:34;98448.47;;;25.29;48.79
35798;BME280;21918;49.940;7.774;2023-07-31T06:31:01;98450.47;;;25.32;49.12
35798;BME280;21918;49.940;7.774;2023-07-31T06:33:28;98439.84;;;25.36;48.39
35798;BME280;21918;49.940;7.774;2023-07-31T06:35:56;98451.53;;;25.38;48.02
35798;BME280;21918;49.940;7.774;2023-07-31T06:38:25;98449.06;;;25.40;48.35
35798;BME280;21918;49.940;7.774;2023-07-31T06:40:52;98457.94;;;25.42;48.33
35798;BME280;21918;49.940;7.774;2023-07-31T06:43:19;98450.66;;;25.41;47.84
35798;BME280;21918;49.940;7.774;2023-07-31T06:45:46;98450.31;;;25.39;48.16
35798;BME280;21918;49.940;7.774;2023-07-31T06:48:16;98444.56;;;25.43;48.38
35798;BME280;21918;49.940;7.774;2023-07-31T06:50:51;98440.13;;;25.42;47.88
35798;BME280;21918;49.940;7.774;2023-07-31T06:53:19;98444.81;;;25.48;48.15
35798;BME280;21918;49.940;7.774;2023-07-31T06:55:49;98436.69;;;25.50;47.71
35798;BME280;21918;49.940;7.774;2023-07-31T06:58:17;98441.41;;;25.57;48.12
35798;BME280;21918;49.940;7.774;2023-07-31T07:00:43;98442.56;;;25.59;47.64
35798;BME280;21918;49.940;7.774;2023-07-31T07:03:13;98438.56;;;25.57;47.50
35798;BME280;21918;49.940;7.774;2023-07-31T07:05:45;98435.81;;;25.53;47.57
35798;BME280;21918;49.940;7.774;2023-07-31T07:08:14;98437.78;;;25.56;47.57
35798;BME280;21918;49.940;7.774;2023-07-31T07:10:46;98435.28;;;25.58;47.21
35798;BME280;21918;49.940;7.774;2023-07-31T07:13:13;98430.34;;;25.62;47.69
35798;BME280;21918;49.940;7.774;2023-07-31T07:15:39;98426.53;;;25.69;47.34
35798;BME280;21918;49.940;7.774;2023-07-31T07:18:07;98417.97;;;25.72;47.57
35798;BME280;21918;49.940;7.774;2023-07-31T07:20:35;98409.47;;;25.72;47.32
35798;BME280;21918;49.940;7.774;2023-07-31T07:23:02;98406.25;;;25.70;47.45
35798;BME280;21918;49.940;7.774;2023-07-31T07:25:31;98407.78;;;25.75;47.48
35798;BME280;21918;49.940;7.774;2023-07-31T07:27:59;98402.88;;;25.75;47.32
35798;BME280;21918;49.940;7.774;2023-07-31T07:30:25;98399.59;;;25.77;46.99
35798;BME280;21918;49.940;7.774;2023-07-31T07:32:52;98399.53;;;25.80;47.20
35798;BME280;21918;49.940;7.774;2023-07-31T07:35:18;98396.69;;;25.80;46.86
35798;BME280;21918;49.940;7.774;2023-07-31T07:37:48;98394.72;;;25.77;47.07
35798;BME280;21918;49.940;7.774;2023-07-31T07:40:15;98397.41;;;25.84;47.39
35798;BME280;21918;49.940;7.774;2023-07-31T07:42:41;98391.22;;;25.89;47.35
35798;BME280;21918;49.940;7.774;2023-07-31T07:45:16;98383.13;;;25.88;47.64
35798;BME280;21918;49.940;7.774;2023-07-31T07:47:43;98381.00;;;25.92;47.38
35798;BME280;21918;49.940;7.774;2023-07-31T07:50:27;98383.66;;;25.83;47.93
35798;BME280;21918;49.940;7.774;2023-07-31T07:52:54;98378.16;;;25.92;47.12
35798;BME280;21918;49.940;7.774;2023-07-31T07:55:22;98374.75;;;26.00;47.27
35798;BME280;21918;49.940;7.774;2023-07-31T07:57:48;98368.19;;;26.03;47.28
35798;BME280;21918;49.940;7.774;2023-07-31T08:00:17;98374.75;;;26.00;46.52
35798;BME280;21918;49.940;7.774;2023-07-31T08:02:44;98377.47;;;26.04;46.72
35798;BME280;21918;49.940;7.774;2023-07-31T08:05:15;98370.47;;;26.08;47.03
35798;BME280;21918;49.940;7.774;2023-07-31T08:07:53;98372.97;;;26.06;47.27
35798;BME280;21918;49.940;7.774;2023-07-31T08:10:19;98372.78;;;26.13;46.95
35798;BME280;21918;49.940;7.774;2023-07-31T08:12:46;98356.09;;;26.15;47.20
35798;BME280;21918;49.940;7.774;2023-07-31T08:15:12;98357.25;;;26.18;47.20
35798;BME280;21918;49.940;7.774;2023-07-31T08:17:40;98349.00;;;26.23;47.12
35798;BME280;21918;49.940;7.774;2023-07-31T08:20:10;98341.69;;;26.22;47.09
35798;BME280;21918;49.940;7.774;2023-07-31T08:22:37;98352.16;;;26.25;46.90
35798;BME280;21918;49.940;7.774;2023-07-31T08:25:05;98359.09;;;26.24;46.71
35798;BME280;21918;49.940;7.774;2023-07-31T08:27:32;98362.63;;;26.28;46.91
35798;BME280;21918;49.940;7.774;2023-07-31T08:30:01;98363.34;;;26.32;46.86
35798;BME280;21918;49.940;7.774;2023-07-31T08:32:30;98364.06;;;26.36;46.97
35798;BME280;21918;49.940;7.774;2023-07-31T08:34:58;98359.97;;;26.37;46.81
35798;BME280;21918;49.940;7.774;2023-07-31T08:37:27;98348.25;;;26.35;45.96
35798;BME280;21918;49.940;7.774;2023-07-31T08:39:57;98345.84;;;26.34;46.56
35798;BME280;21918;49.940;7.774;2023-07-31T08:42:23;98341.22;;;26.40;46.23
35798;BME280;21918;49.940;7.774;2023-07-31T08:44:51;98343.97;;;26.43;46.12
35798;BME280;21918;49.940;7.774;2023-07-31T08:47:19;98351.84;;;26.52;46.21
35798;BME280;21918;49.940;7.774;2023-07-31T08:50:04;98346.00;;;26.43;46.39
35798;BME280;21918;49.940;7.774;2023-07-31T08:52:32;98355.47;;;26.52;46.22
35798;BME280;21918;49.940;7.774;2023-07-31T08:54:58;98348.13;;;26.55;46.22
35798;BME280;21918;49.940;7.774;2023-07-31T08:57:25;98346.34;;;26.61;46.44
35798;BME280;21918;49.940;7.774;2023-07-31T08:59:54;98341.38;;;26.65;46.65
35798;BME280;21918;49.940;7.774;2023-07-31T09:02:21;98341.47;;;26.61;45.03
35798;BME280;21918;49.940;7.774;2023-07-31T09:04:49;98347.19;;;26.58;45.47
35798;BME280;21918;49.940;7.774;2023-07-31T09:07:17;98349.91;;;26.65;45.64
35798;BME280;21918;49.940;7.774;2023-07-31T09:09:45;98336.28;;;26.72;46.17
35798;BME280;21918;49.940;7.774;2023-07-31T09:12:12;98346.28;;;26.77;45.49
35798;BME280;21918;49.940;7.774;2023-07-31T09:14:40;98337.31;;;26.78;45.09
35798;BME280;21918;49.940;7.774;2023-07-31T09:17:08;98335.03;;;26.73;45.33
35798;BME280;21918;49.940;7.774;2023-07-31T09:19:36;98329.00;;;26.71;44.95
35798;BME280;21918;49.940;7.774;2023-07-31T09:22:03;98331.63;;;26.78;45.71
35798;BME280;21918;49.940;7.774;2023-07-31T09:24:34;98329.38;;;26.86;45.17
35798;BME280;21918;49.940;7.774;2023-07-31T09:27:01;98323.94;;;26.91;44.92
35798;BME280;21918;49.940;7.774;2023-07-31T09:29:28;98315.78;;;26.93;44.44
35798;BME280;21918;49.940;7.774;2023-07-31T09:31:56;98316.91;;;26.96;44.19
35798;BME280;21918;49.940;7.774;2023-07-31T09:34:28;98318.94;;;26.95;44.25
35798;BME280;21918;49.940;7.774;2023-07-31T09:36:58;98328.84;;;27.03;44.46
35798;BME280;21918;49.940;7.774;2023-07-31T09:39:27;98321.94;;;27.05;44.58
35798;BME280;21918;49.940;7.774;2023-07-31T09:41:56;98314.06;;;27.09;44.45
35798;BME280;21918;49.940;7.774;2023-07-31T09:44:37;98313.72;;;27.07;44.58
35798;BME280;21918;49.940;7.774;2023-07-31T09:47:20;98319.53;;;27.16;44.76
35798;BME280;21918;49.940;7.774;2023-07-31T09:49:49;98307.81;;;27.14;44.79
35798;BME280;21918;49.940;7.774;2023-07-31T09:52:16;98325.22;;;27.16;44.59
35798;BME280;21918;49.940;7.774;2023-07-31T09:54:45;98319.19;;;27.14;44.08
35798;BME280;21918;49.940;7.774;2023-07-31T09:57:14;98313.84;;;27.16;44.35
35798;BME280;21918;49.940;7.774;2023-07-31T09:59:45;98311.38;;;27.18;44.42
35798;BME280;21918;49.940;7.774;2023-07-31T10:02:15;98301.59;;;27.19;43.82
35798;BME280;21918;49.940;7.774;2023-07-31T10:04:49;98310.47;;;27.21;44.31
35798;BME280;21918;49.940;7.774;2023-07-31T10:07:18;98322.19;;;27.23;44.06
35798;BME280;21918;49.940;7.774;2023-07-31T10:09:45;98313.41;;;27.17;43.81
35798;BME280;21918;49.940;7.774;2023-07-31T10:12:19;98304.28;;;27.10;43.90
35798;BME280;21918;49.940;7.774;2023-07-31T10:14:47;98311.38;;;27.18;43.96
35798;BME280;21918;49.940;7.774;2023-07-31T10:17:15;98308.16;;;27.16;43.25
35798;BME280;21918;49.940;7.774;2023-07-31T10:19:43;98296.13;;;27.12;43.35
35798;BME280;21918;49.940;7.774;2023-07-31T10:22:14;98287.81;;;27.17;43.32
35798;BME280;21918;49.940;7.774;2023-07-31T10:24:45;98275.44;;;27.24;43.58
35798;BME280;21918;49.940;7.774;2023-07-31T10:27:12;98287.75;;;27.33;43.58
35798;BME280;21918;49.940;7.774;2023-07-31T10:29:43;98279.09;;;27.37;43.41
35798;BME280;21918;49.940;7.774;2023-07-31T10:32:12;98269.53;;;27.43;42.90
35798;BME280;21918;49.940;7.774;2023-07-31T10:34:40;98269.75;;;27.49;43.18
35798;BME280;21918;49.940;7.774;2023-07-31T10:37:23;98273.50;;;27.46;42.79
35798;BME280;21918;49.940;7.774;2023-07-31T10:40:01;98263.94;;;27.52;42.49
35798;BME280;21918;49.940;7.774;2023-07-31T10:42:32;98264.25;;;27.67;42.68
35798;BME280;21918;49.940;7.774;2023-07-31T10:45:02;98269.94;;;27.67;41.94
35798;BME280;21918;49.940;7.774;2023-07-31T10:47:36;98259.03;;;27.65;41.87
35798;BME280;21918;49.940;7.774;2023-07-31T10:50:16;98257.00;;;27.66;42.37
35798;BME280;21918;49.940;7.774;2023-07-31T10:52:46;98259.69;;;27.82;42.48
35798;BME280;21918;49.940;7.774;2023-07-31T10:55:28;98259.13;;;27.87;42.85
35798;BME280;21918;49.940;7.774;2023-07-31T10:57:56;98249.06;;;28.07;42.71
35798;BME280;21918;49.940;7.774;2023-07-31T11:00:28;98243.09;;;28.14;42.58
35798;BME280;21918;49.940;7.774;2023-07-31T11:02:59;98251.69;;;28.23;42.54
35798;BME280;21918;49.940;7.774;2023-07-31T11:05:42;98246.72;;;28.15;42.18
35798;BME280;21918;49.940;7.774;2023-07-31T11:08:11;98249.34;;;28.22;41.54
35798;BME280;21918;49.940;7.774;2023-07-31T11:10:38;98245.88;;;28.27;41.34
35798;BME280;21918;49.940;7.774;2023-07-31T11:13:05;98252.44;;;28.36;41.01
35798;BME280;21918;49.940;7.774;2023-07-31T11:15:36;98242.84;;;28.43;41.44
35798;BME280;21918;49.940;7.774;2023-07-31T11:18:03;98245.13;;;28.48;40.74
35798;BME280;21918;49.940;7.774;2023-07-31T11:20:31;98243.94;;;28.58;40.77
35798;BME280;21918;49.940;7.774;2023-07-31T11:23:00;98251.63;;;28.70;41.42
35798;BME280;21918;49.940;7.774;2023-07-31T11:25:29;98250.69;;;28.73;40.40
35798;BME280;21918;49.940;7.774;2023-07-31T11:28:02;98254.13;;;28.68;40.59
35798;BME280;21918;49.940;7.774;2023-07-31T11:30:29;98249.69;;;28.67;40.03
35798;BME280;21918;49.940;7.774;2023-07-31T11:32:57;98257.44;;;28.66;40.78
35798;BME280;21918;49.940;7.774;2023-07-31T11:35:26;98247.91;;;28.60;40.52
35798;BME280;21918;49.940;7.774;2023-07-31T11:37:52;98243.16;;;28.57;40.46
35798;BME280;21918;49.940;7.774;2023-07-31T11:40:19;98258.78;;;28.53;40.24
35798;BME280;21918;49.940;7.774;2023-07-31T11:42:46;98254.59;;;28.45;41.05
35798;BME280;21918;49.940;7.774;2023-07-31T11:45:13;98253.44;;;28.42;41.40
35798;BME280;21918;49.940;7.774;2023-07-31T11:47:42;98250.59;;;28.42;41.74
35798;BME280;21918;49.940;7.774;2023-07-31T11:50:11;98244.47;;;28.44;42.91
35798;BME280;21918;49.940;7.774;2023-07-31T11:52:40;98238.66;;;28.47;42.16
35798;BME280;21918;49.940;7.774;2023-07-31T11:55:08;98244.47;;;28.44;40.60
35798;BME280;21918;49.940;7.774;2023-07-31T11:57:37;98239.66;;;28.41;40.77
35798;BME280;21918;49.940;7.774;2023-07-31T12:00:10;98239.66;;;28.41;41.90
35798;BME280;21918;49.940;7.774;2023-07-31T12:02:38;98243.53;;;28.47;42.24
35798;BME280;21918;49.940;7.774;2023-07-31T12:05:06;98237.69;;;28.50;42.35
35798;BME280;21918;49.940;7.774;2023-07-31T12:07:50;98231.88;;;28.54;42.06
35798;BME280;21918;49.940;7.774;2023-07-31T12:10:27;98224.91;;;28.55;42.02
35798;BME280;21918;49.940;7.774;2023-07-31T12:13:02;98223.72;;;28.65;41.83
35798;BME280;21918;49.940;7.774;2023-07-31T12:15:40;98209.34;;;28.68;42.11
35798;BME280;21918;49.940;7.774;2023-07-31T12:18:09;98214.00;;;28.84;41.22
35798;BME280;21918;49.940;7.774;2023-07-31T12:20:41;98215.47;;;28.88;41.40
35798;BME280;21918;49.940;7.774;2023-07-31T12:23:14;98220.38;;;28.88;41.05
35798;BME280;21918;49.940;7.774;2023-07-31T12:25:41;98219.44;;;28.91;40.85
35798;BME280;21918;49.940;7.774;2023-07-31T12:28:08;98214.66;;;28.88;40.42
35798;BME280;21918;49.940;7.774;2023-07-31T14:50:37;98175.06;;;27.95;42.86
35798;BME280;21918;49.940;7.774;2023-07-31T14:53:10;98160.25;;;28.00;42.77
35798;BME280;21918;49.940;7.774;2023-07-31T14:55:44;98164.56;;;28.04;42.92
35798;BME280;21918;49.940;7.774;2023-07-31T14:58:23;98160.13;;;28.03;43.02
35798;BME280;21918;49.940;7.774;2023-07-31T15:01:06;98161.06;;;28.00;42.99
35798;BME280;21918;49.940;7.774;2023-07-31T15:03:41;98158.00;;;27.95;42.63
35798;BME280;21918;49.940;7.774;2023-07-31T15:06:43;98157.00;;;27.89;42.96
35798;BME280;21918;49.940;7.774;2023-07-31T15:12:31;98176.63;;;27.74;42.46
35798;BME280;21918;49.940;7.774;2023-07-31T15:15:06;98156.34;;;27.72;42.01
35798;BME280;21918;49.940;7.774;2023-07-31T15:18:03;98156.19;;;27.54;42.16
35798;BME280;21918;49.940;7.774;2023-07-31T15:20:47;98157.06;;;27.64;42.58
35798;BME280;21918;49.940;7.774;2023-07-31T15:29:13;98158.28;;;27.75;42.44
35798;BME280;21918;49.940;7.774;2023-07-31T15:31:56;98151.13;;;27.71;42.14
35798;BME280;21918;49.940;7.774;2023-07-31T15:34:36;98159.34;;;27.69;42.07
35798;BME280;21918;49.940;7.774;2023-07-31T15:37:22;98159.59;;;27.62;42.27
35798;BME280;21918;49.940;7.774;2023-07-31T15:40:03;98164.22;;;27.68;41.69